sensor_id;sensor_type;location;lat;lon;timestamp;pressure;altitude;pressure_sealevel;temperature;humidity
35694;BME280;21812;55.536;37.664;2023-04-22T00:01:23;99280.56;;;10.99;42.79
35694;BME280;21812;55.536;37.664;2023-04-22T00:03:49;99292.88;;;10.80;42.59
35694;BME280;21812;55.536;37.664;2023-04-22T00:06:16;99275.72;;;10.54;43.30
35694;BME280;21812;55.536;37.664;2023-04-22T00:08:42;99285.56;;;10.41;44.21
35694;BME280;21812;55.536;37.664;2023-04-22T00:11:08;99286.88;;;10.23;44.37
35694;BME280;21812;55.536;37.664;2023-04-22T00:13:34;99286.00;;;10.09;44.71
35694;BME280;21812;55.536;37.664;2023-04-22T00:16:02;99292.09;;;9.96;45.17
35694;BME280;21812;55.536;37.664;2023-04-22T00:18:28;99285.25;;;9.87;45.17
35694;BME280;21812;55.536;37.664;2023-04-22T00:20:54;99287.69;;;9.82;45.14
35694;BME280;21812;55.536;37.664;2023-04-22T00:23:20;99284.28;;;9.95;45.25
35694;BME280;21812;55.536;37.664;2023-04-22T00:25:45;99285.31;;;10.35;44.38
35694;BME280;21812;55.536;37.664;2023-04-22T00:28:11;99279.47;;;10.67;43.68
35694;BME280;21812;55.536;37.664;2023-04-22T00:30:37;99281.88;;;10.48;43.68
35694;BME280;21812;55.536;37.664;2023-04-22T00:33:03;99287.16;;;10.35;44.25
35694;BME280;21812;55.536;37.664;2023-04-22T00:35:28;99288.31;;;10.26;44.44
35694;BME280;21812;55.536;37.664;2023-04-22T00:37:54;99281.66;;;10.43;45.82
35694;BME280;21812;55.536;37.664;2023-04-22T00:40:21;99287.44;;;10.53;44.31
35694;BME280;21812;55.536;37.664;2023-04-22T00:42:49;99257.28;;;10.18;44.31
35694;BME280;21812;55.536;37.664;2023-04-22T00:45:15;99287.19;;;10.07;44.95
35694;BME280;21812;55.536;37.664;2023-04-22T00:47:44;99285.78;;;9.69;45.88
35694;BME280;21812;55.536;37.664;2023-04-22T00:50:11;99277.47;;;9.57;46.09
35694;BME280;21812;55.536;37.664;2023-04-22T00:52:36;99289.34;;;9.55;46.38
35694;BME280;21812;55.536;37.664;2023-04-22T00:55:02;99284.00;;;9.55;46.17
35694;BME280;21812;55.536;37.664;2023-04-22T00:57:31;99279.59;;;9.69;46.20
35694;BME280;21812;55.536;37.664;2023-04-22T00:59:58;99286.16;;;9.66;45.93
35694;BME280;21812;55.536;37.664;2023-04-22T01:02:23;99280.72;;;9.53;46.52
35694;BME280;21812;55.536;37.664;2023-04-22T01:04:50;99281.88;;;9.44;46.62
35694;BME280;21812;55.536;37.664;2023-04-22T01:07:18;99284.59;;;9.22;47.32
35694;BME280;21812;55.536;37.664;2023-04-22T01:09:45;99285.88;;;9.05;47.96
35694;BME280;21812;55.536;37.664;2023-04-22T01:12:10;99287.75;;;9.11;48.24
35694;BME280;21812;55.536;37.664;2023-04-22T01:14:36;99281.91;;;9.22;47.46
35694;BME280;21812;55.536;37.664;2023-04-22T01:17:02;99287.50;;;9.06;48.07
35694;BME280;21812;55.536;37.664;2023-04-22T01:19:28;99259.72;;;8.72;49.44
35694;BME280;21812;55.536;37.664;2023-04-22T01:21:55;99284.47;;;9.09;49.14
35694;BME280;21812;55.536;37.664;2023-04-22T01:24:21;99282.22;;;9.34;47.87
35694;BME280;21812;55.536;37.664;2023-04-22T01:26:47;99288.69;;;9.25;47.95
35694;BME280;21812;55.536;37.664;2023-04-22T01:29:14;99282.22;;;9.34;47.72
35694;BME280;21812;55.536;37.664;2023-04-22T01:31:40;99271.78;;;9.11;48.23
35694;BME280;21812;55.536;37.664;2023-04-22T01:34:06;99279.25;;;9.22;48.15
35694;BME280;21812;55.536;37.664;2023-04-22T01:36:32;99273.59;;;9.32;47.93
35694;BME280;21812;55.536;37.664;2023-04-22T01:38:59;99279.63;;;9.19;48.08
35694;BME280;21812;55.536;37.664;2023-04-22T01:41:26;99277.56;;;9.14;48.58
35694;BME280;21812;55.536;37.664;2023-04-22T01:43:52;99269.59;;;9.21;48.10
35694;BME280;21812;55.536;37.664;2023-04-22T01:46:19;99271.41;;;9.42;48.26
35694;BME280;21812;55.536;37.664;2023-04-22T01:48:45;99269.09;;;9.32;48.23
35694;BME280;21812;55.536;37.664;2023-04-22T01:51:15;99273.28;;;9.20;48.64
35694;BME280;21812;55.536;37.664;2023-04-22T01:53:43;99269.13;;;9.11;48.71
35694;BME280;21812;55.536;37.664;2023-04-22T01:56:09;99270.88;;;9.04;48.91
35694;BME280;21812;55.536;37.664;2023-04-22T01:58:35;99268.81;;;8.99;48.97
35694;BME280;21812;55.536;37.664;2023-04-22T02:01:03;99267.97;;;8.98;48.98
35694;BME280;21812;55.536;37.664;2023-04-22T02:03:29;99266.50;;;9.17;48.53
35694;BME280;21812;55.536;37.664;2023-04-22T02:05:55;99266.13;;;9.49;47.73
35694;BME280;21812;55.536;37.664;2023-04-22T02:08:20;99262.00;;;9.74;47.46
35694;BME280;21812;55.536;37.664;2023-04-22T02:10:46;99268.56;;;9.78;46.98
35694;BME280;21812;55.536;37.664;2023-04-22T02:13:12;99269.38;;;9.72;46.96
35694;BME280;21812;55.536;37.664;2023-04-22T02:15:38;99270.53;;;9.63;47.07
35694;BME280;21812;55.536;37.664;2023-04-22T02:18:05;99274.03;;;9.35;47.88
35694;BME280;21812;55.536;37.664;2023-04-22T02:20:30;99271.91;;;9.24;48.36
35694;BME280;21812;55.536;37.664;2023-04-22T02:22:56;99280.03;;;9.16;48.38
35694;BME280;21812;55.536;37.664;2023-04-22T02:25:22;99282.69;;;8.94;48.79
35694;BME280;21812;55.536;37.664;2023-04-22T02:27:49;99274.69;;;8.73;49.71
35694;BME280;21812;55.536;37.664;2023-04-22T02:30:15;99277.22;;;8.59;50.11
35694;BME280;21812;55.536;37.664;2023-04-22T02:32:40;99287.13;;;8.87;50.02
35694;BME280;21812;55.536;37.664;2023-04-22T02:35:06;99282.19;;;9.27;48.44
35694;BME280;21812;55.536;37.664;2023-04-22T02:37:32;99286.00;;;9.18;48.78
35694;BME280;21812;55.536;37.664;2023-04-22T02:39:58;99281.94;;;9.00;49.26
35694;BME280;21812;55.536;37.664;2023-04-22T02:42:24;99285.47;;;8.86;49.59
35694;BME280;21812;55.536;37.664;2023-04-22T02:44:50;99285.41;;;8.79;49.81
35694;BME280;21812;55.536;37.664;2023-04-22T02:47:16;99283.75;;;8.78;49.66
35694;BME280;21812;55.536;37.664;2023-04-22T02:49:41;99286.06;;;8.82;49.84
35694;BME280;21812;55.536;37.664;2023-04-22T02:52:08;99291.38;;;9.03;49.25
35694;BME280;21812;55.536;37.664;2023-04-22T02:54:34;99294.50;;;9.07;49.34
35694;BME280;21812;55.536;37.664;2023-04-22T02:57:00;99293.91;;;8.90;49.77
35694;BME280;21812;55.536;37.664;2023-04-22T02:59:26;99294.59;;;8.98;50.08
35694;BME280;21812;55.536;37.664;2023-04-22T03:01:51;99298.53;;;9.24;49.20
35694;BME280;21812;55.536;37.664;2023-04-22T03:04:37;99292.47;;;9.09;49.61
35694;BME280;21812;55.536;37.664;2023-04-22T03:07:03;99291.44;;;9.10;49.93
35694;BME280;21812;55.536;37.664;2023-04-22T03:09:29;99289.38;;;9.12;49.73
35694;BME280;21812;55.536;37.664;2023-04-22T03:11:54;99293.47;;;9.08;49.95
35694;BME280;21812;55.536;37.664;2023-04-22T03:14:20;99294.94;;;9.10;49.99
35694;BME280;21812;55.536;37.664;2023-04-22T03:16:46;99289.66;;;9.17;49.79
35694;BME280;21812;55.536;37.664;2023-04-22T03:19:13;99297.06;;;9.43;49.07
35694;BME280;21812;55.536;37.664;2023-04-22T03:21:38;99293.91;;;9.61;48.79
35694;BME280;21812;55.536;37.664;2023-04-22T03:24:05;99296.47;;;9.76;48.15
35694;BME280;21812;55.536;37.664;2023-04-22T03:26:33;99290.78;;;9.86;47.83
35694;BME280;21812;55.536;37.664;2023-04-22T03:28:59;99296.59;;;9.96;47.72
35694;BME280;21812;55.536;37.664;2023-04-22T03:31:24;99295.84;;;10.09;47.96
35694;BME280;21812;55.536;37.664;2023-04-22T03:33:51;99298.19;;;10.25;46.99
35694;BME280;21812;55.536;37.664;2023-04-22T03:36:23;99303.00;;;10.43;46.54
35694;BME280;21812;55.536;37.664;2023-04-22T03:38:49;99303.44;;;10.47;46.27
35694;BME280;21812;55.536;37.664;2023-04-22T03:41:16;99298.56;;;10.64;48.11
35694;BME280;21812;55.536;37.664;2023-04-22T03:43:45;99309.34;;;10.97;47.34
35694;BME280;21812;55.536;37.664;2023-04-22T03:46:11;99312.25;;;11.22;44.42
35694;BME280;21812;55.536;37.664;2023-04-22T03:48:40;99309.19;;;11.25;44.10
35694;BME280;21812;55.536;37.664;2023-04-22T03:51:15;99312.25;;;11.35;44.53
35694;BME280;21812;55.536;37.664;2023-04-22T03:53:40;99317.00;;;11.47;43.60
35694;BME280;21812;55.536;37.664;2023-04-22T03:56:08;99315.75;;;11.56;43.59
35694;BME280;21812;55.536;37.664;2023-04-22T03:58:39;99309.19;;;11.52;43.13
35694;BME280;21812;55.536;37.664;2023-04-22T04:01:06;99316.78;;;11.68;45.17
35694;BME280;21812;55.536;37.664;2023-04-22T04:03:33;99312.47;;;11.61;43.02
35694;BME280;21812;55.536;37.664;2023-04-22T04:05:59;99306.69;;;11.70;45.36
35694;BME280;21812;55.536;37.664;2023-04-22T04:08:25;99312.63;;;11.99;42.31
35694;BME280;21812;55.536;37.664;2023-04-22T04:10:51;99308.00;;;12.40;43.84
35694;BME280;21812;55.536;37.664;2023-04-22T04:13:16;99312.09;;;12.49;42.98
35694;BME280;21812;55.536;37.664;2023-04-22T04:16:02;99307.91;;;12.66;40.91
35694;BME280;21812;55.536;37.664;2023-04-22T04:18:30;99312.03;;;13.01;41.10
35694;BME280;21812;55.536;37.664;2023-04-22T04:20:57;99309.97;;;13.35;41.54
35694;BME280;21812;55.536;37.664;2023-04-22T04:23:25;99311.69;;;13.54;41.93
35694;BME280;21812;55.536;37.664;2023-04-22T04:25:52;99306.53;;;13.96;40.99
35694;BME280;21812;55.536;37.664;2023-04-22T04:28:18;99302.88;;;13.91;40.52
35694;BME280;21812;55.536;37.664;2023-04-22T04:30:44;99306.72;;;13.76;38.54
35694;BME280;21812;55.536;37.664;2023-04-22T04:33:10;99308.03;;;13.92;41.02
35694;BME280;21812;55.536;37.664;2023-04-22T04:35:38;99298.25;;;14.16;39.20
35694;BME280;21812;55.536;37.664;2023-04-22T04:38:07;99298.47;;;14.52;40.30
35694;BME280;21812;55.536;37.664;2023-04-22T04:40:34;99299.81;;;14.79;40.38
35694;BME280;21812;55.536;37.664;2023-04-22T04:43:14;99304.13;;;14.80;36.81
35694;BME280;21812;55.536;37.664;2023-04-22T04:45:46;99301.28;;;15.05;37.50
35694;BME280;21812;55.536;37.664;2023-04-22T04:48:15;99312.50;;;15.56;38.48
35694;BME280;21812;55.536;37.664;2023-04-22T04:50:48;99305.63;;;15.96;36.92
35694;BME280;21812;55.536;37.664;2023-04-22T04:53:15;99308.16;;;16.26;36.56
35694;BME280;21812;55.536;37.664;2023-04-22T04:55:45;99310.47;;;16.34;35.66
35694;BME280;21812;55.536;37.664;2023-04-22T04:58:19;99313.28;;;16.39;34.81
35694;BME280;21812;55.536;37.664;2023-04-22T05:00:47;99307.31;;;16.37;34.72
35694;BME280;21812;55.536;37.664;2023-04-22T05:03:15;99301.50;;;16.57;34.94
35694;BME280;21812;55.536;37.664;2023-04-22T05:05:40;99305.91;;;16.75;34.12
35694;BME280;21812;55.536;37.664;2023-04-22T05:08:06;99305.66;;;16.89;33.72
35694;BME280;21812;55.536;37.664;2023-04-22T05:10:36;99306.38;;;16.72;33.10
35694;BME280;21812;55.536;37.664;2023-04-22T05:13:03;99303.84;;;16.94;33.79
35694;BME280;21812;55.536;37.664;2023-04-22T05:15:28;99313.22;;;17.20;33.55
35694;BME280;21812;55.536;37.664;2023-04-22T05:17:55;99306.66;;;16.99;32.44
35694;BME280;21812;55.536;37.664;2023-04-22T05:20:21;99313.34;;;16.97;32.68
35694;BME280;21812;55.536;37.664;2023-04-22T05:22:47;99308.22;;;16.55;32.43
35694;BME280;21812;55.536;37.664;2023-04-22T05:25:14;99314.78;;;16.47;33.85
35694;BME280;21812;55.536;37.664;2023-04-22T05:27:49;99309.91;;;16.73;33.84
35694;BME280;21812;55.536;37.664;2023-04-22T05:30:18;99311.91;;;16.66;32.02
35694;BME280;21812;55.536;37.664;2023-04-22T05:32:43;99312.94;;;16.76;33.18
35694;BME280;21812;55.536;37.664;2023-04-22T05:35:09;99311.06;;;17.06;33.24
35694;BME280;21812;55.536;37.664;2023-04-22T05:37:36;99307.69;;;16.70;33.08
35694;BME280;21812;55.536;37.664;2023-04-22T05:40:02;99308.41;;;16.65;33.54
35694;BME280;21812;55.536;37.664;2023-04-22T05:42:30;99305.84;;;16.99;33.80
35694;BME280;21812;55.536;37.664;2023-04-22T05:44:56;99302.75;;;17.24;33.10
35694;BME280;21812;55.536;37.664;2023-04-22T05:47:21;99296.56;;;17.41;32.41
35694;BME280;21812;55.536;37.664;2023-04-22T05:49:47;99302.94;;;17.51;31.96
35694;BME280;21812;55.536;37.664;2023-04-22T05:52:22;99309.72;;;17.37;31.98
35694;BME280;21812;55.536;37.664;2023-04-22T05:54:56;99299.97;;;17.36;31.85
35694;BME280;21812;55.536;37.664;2023-04-22T05:57:22;99310.06;;;17.41;31.42
35694;BME280;21812;55.536;37.664;2023-04-22T05:59:47;99308.00;;;17.65;31.88
35694;BME280;21812;55.536;37.664;2023-04-22T06:02:13;99309.88;;;17.64;30.87
35694;BME280;21812;55.536;37.664;2023-04-22T06:04:40;99313.56;;;17.75;34.66
35694;BME280;21812;55.536;37.664;2023-04-22T06:07:06;99307.38;;;17.57;36.72
35694;BME280;21812;55.536;37.664;2023-04-22T06:09:32;99314.28;;;17.53;37.76
35694;BME280;21812;55.536;37.664;2023-04-22T06:11:57;99308.91;;;17.36;38.71
35694;BME280;21812;55.536;37.664;2023-04-22T06:14:23;99307.16;;;17.13;42.85
35694;BME280;21812;55.536;37.664;2023-04-22T06:16:49;99306.81;;;16.93;34.94
35694;BME280;21812;55.536;37.664;2023-04-22T06:19:17;99317.19;;;17.01;36.69
35694;BME280;21812;55.536;37.664;2023-04-22T06:21:43;99302.72;;;17.07;37.96
35694;BME280;21812;55.536;37.664;2023-04-22T06:24:08;99306.06;;;16.97;34.34
35694;BME280;21812;55.536;37.664;2023-04-22T06:26:36;99311.19;;;17.28;38.99
35694;BME280;21812;55.536;37.664;2023-04-22T06:29:02;99311.34;;;17.55;37.64
35694;BME280;21812;55.536;37.664;2023-04-22T06:31:31;99304.41;;;17.59;34.31
35694;BME280;21812;55.536;37.664;2023-04-22T06:33:57;99303.41;;;17.82;39.23
35694;BME280;21812;55.536;37.664;2023-04-22T06:36:24;99303.34;;;18.16;38.98
35694;BME280;21812;55.536;37.664;2023-04-22T06:38:55;99302.59;;;17.98;32.25
35694;BME280;21812;55.536;37.664;2023-04-22T06:41:37;99294.84;;;18.24;36.03
35694;BME280;21812;55.536;37.664;2023-04-22T06:44:12;99301.06;;;18.47;33.24
35694;BME280;21812;55.536;37.664;2023-04-22T06:47:00;99290.09;;;18.36;30.52
35694;BME280;21812;55.536;37.664;2023-04-22T06:49:39;99296.59;;;18.35;31.92
35694;BME280;21812;55.536;37.664;2023-04-22T06:52:22;99295.75;;;18.13;32.28
35694;BME280;21812;55.536;37.664;2023-04-22T06:54:49;99290.88;;;17.93;32.06
35694;BME280;21812;55.536;37.664;2023-04-22T06:57:15;99296.72;;;17.68;32.07
35694;BME280;21812;55.536;37.664;2023-04-22T06:59:41;99293.06;;;18.13;32.84
35694;BME280;21812;55.536;37.664;2023-04-22T07:02:06;99277.28;;;18.49;32.65
35694;BME280;21812;55.536;37.664;2023-04-22T07:04:35;99276.69;;;18.69;32.21
35694;BME280;21812;55.536;37.664;2023-04-22T07:07:02;99288.38;;;18.74;31.63
35694;BME280;21812;55.536;37.664;2023-04-22T07:09:28;99290.34;;;18.57;31.10
35694;BME280;21812;55.536;37.664;2023-04-22T07:11:53;99285.72;;;18.30;32.15
35694;BME280;21812;55.536;37.664;2023-04-22T07:14:20;99281.03;;;18.26;29.73
35694;BME280;21812;55.536;37.664;2023-04-22T07:16:46;99285.59;;;18.20;30.92
35694;BME280;21812;55.536;37.664;2023-04-22T07:19:11;99278.34;;;18.48;30.83
35694;BME280;21812;55.536;37.664;2023-04-22T07:21:37;99288.69;;;18.78;30.32
35694;BME280;21812;55.536;37.664;2023-04-22T07:24:03;99278.38;;;18.75;30.17
35694;BME280;21812;55.536;37.664;2023-04-22T07:26:28;99280.19;;;18.69;29.52
35694;BME280;21812;55.536;37.664;2023-04-22T07:28:56;99287.44;;;18.64;29.84
35694;BME280;21812;55.536;37.664;2023-04-22T07:31:22;99283.31;;;19.05;30.25
35694;BME280;21812;55.536;37.664;2023-04-22T07:33:48;99286.41;;;19.51;32.49
35694;BME280;21812;55.536;37.664;2023-04-22T07:36:14;99285.81;;;19.82;31.78
35694;BME280;21812;55.536;37.664;2023-04-22T07:38:39;99278.91;;;20.01;32.97
35694;BME280;21812;55.536;37.664;2023-04-22T07:41:05;99281.91;;;20.10;32.88
35694;BME280;21812;55.536;37.664;2023-04-22T07:43:31;99284.50;;;19.84;30.80
35694;BME280;21812;55.536;37.664;2023-04-22T07:45:57;99286.00;;;19.32;30.34
35694;BME280;21812;55.536;37.664;2023-04-22T07:48:23;99295.06;;;18.89;28.67
35694;BME280;21812;55.536;37.664;2023-04-22T07:50:48;99285.81;;;18.41;29.08
35694;BME280;21812;55.536;37.664;2023-04-22T07:53:14;99291.72;;;17.93;31.15
35694;BME280;21812;55.536;37.664;2023-04-22T07:55:41;99296.22;;;17.37;29.22
35694;BME280;21812;55.536;37.664;2023-04-22T07:58:07;99298.31;;;17.01;29.70
35694;BME280;21812;55.536;37.664;2023-04-22T08:00:33;99304.91;;;16.65;29.96
35694;BME280;21812;55.536;37.664;2023-04-22T08:03:00;99310.22;;;16.48;30.37
35694;BME280;21812;55.536;37.664;2023-04-22T08:05:26;99294.91;;;16.36;30.34
35694;BME280;21812;55.536;37.664;2023-04-22T08:07:51;99310.28;;;16.24;30.47
35694;BME280;21812;55.536;37.664;2023-04-22T08:10:17;99316.25;;;16.02;30.33
35694;BME280;21812;55.536;37.664;2023-04-22T08:12:43;99313.72;;;15.84;30.76
35694;BME280;21812;55.536;37.664;2023-04-22T08:15:09;99304.19;;;15.70;31.71
35694;BME280;21812;55.536;37.664;2023-04-22T08:17:34;99310.78;;;15.74;31.11
35694;BME280;21812;55.536;37.664;2023-04-22T08:20:00;99311.94;;;15.78;31.02
35694;BME280;21812;55.536;37.664;2023-04-22T08:22:26;99311.13;;;15.77;31.09
35694;BME280;21812;55.536;37.664;2023-04-22T08:24:52;99318.03;;;15.85;31.21
35694;BME280;21812;55.536;37.664;2023-04-22T08:27:20;99317.94;;;15.92;31.26
35694;BME280;21812;55.536;37.664;2023-04-22T08:29:46;99311.13;;;15.77;30.71
35694;BME280;21812;55.536;37.664;2023-04-22T08:32:12;99312.44;;;15.75;30.51
35694;BME280;21812;55.536;37.664;2023-04-22T08:34:37;99315.47;;;15.78;30.42
35694;BME280;21812;55.536;37.664;2023-04-22T08:37:03;99315.69;;;16.00;30.10
35694;BME280;21812;55.536;37.664;2023-04-22T08:39:29;99306.06;;;16.05;30.14
35694;BME280;21812;55.536;37.664;2023-04-22T08:41:55;99289.81;;;16.11;29.19
35694;BME280;21812;55.536;37.664;2023-04-22T08:44:22;99293.34;;;16.40;29.67
35694;BME280;21812;55.536;37.664;2023-04-22T08:46:49;99287.34;;;16.62;29.42
35694;BME280;21812;55.536;37.664;2023-04-22T08:49:15;99287.63;;;16.77;29.25
35694;BME280;21812;55.536;37.664;2023-04-22T08:51:42;99290.91;;;16.79;29.47
35694;BME280;21812;55.536;37.664;2023-04-22T08:54:09;99302.53;;;16.68;28.68
35694;BME280;21812;55.536;37.664;2023-04-22T08:56:36;99300.59;;;16.52;28.54
35694;BME280;21812;55.536;37.664;2023-04-22T08:59:05;99300.06;;;16.38;29.29
35694;BME280;21812;55.536;37.664;2023-04-22T09:01:31;99300.44;;;16.30;30.28
35694;BME280;21812;55.536;37.664;2023-04-22T09:03:58;99279.38;;;16.15;30.50
35694;BME280;21812;55.536;37.664;2023-04-22T09:06:25;99302.78;;;16.26;30.21
35694;BME280;21812;55.536;37.664;2023-04-22T09:08:52;99301.25;;;16.30;30.21
35694;BME280;21812;55.536;37.664;2023-04-22T09:11:18;99304.03;;;16.47;30.95
35694;BME280;21812;55.536;37.664;2023-04-22T09:13:44;99298.97;;;16.51;30.58
35694;BME280;21812;55.536;37.664;2023-04-22T09:16:09;99300.13;;;16.55;30.38
35694;BME280;21812;55.536;37.664;2023-04-22T09:18:42;99294.59;;;16.61;29.94
35694;BME280;21812;55.536;37.664;2023-04-22T09:21:10;99297.38;;;16.67;29.98
35694;BME280;21812;55.536;37.664;2023-04-22T09:23:47;99291.94;;;16.50;28.56
35694;BME280;21812;55.536;37.664;2023-04-22T09:26:13;99298.78;;;16.29;28.96
35694;BME280;21812;55.536;37.664;2023-04-22T09:28:51;99292.47;;;16.23;29.11
35694;BME280;21812;55.536;37.664;2023-04-22T09:31:17;99304.13;;;16.40;30.20
35694;BME280;21812;55.536;37.664;2023-04-22T09:33:47;99295.69;;;16.49;28.75
35694;BME280;21812;55.536;37.664;2023-04-22T09:36:13;99288.31;;;16.44;28.87
35694;BME280;21812;55.536;37.664;2023-04-22T09:38:39;99295.00;;;16.41;29.53
35694;BME280;21812;55.536;37.664;2023-04-22T09:41:10;99286.72;;;16.60;29.38
35694;BME280;21812;55.536;37.664;2023-04-22T09:43:37;99284.34;;;17.04;30.23
35694;BME280;21812;55.536;37.664;2023-04-22T09:46:03;99278.72;;;17.56;29.08
35694;BME280;21812;55.536;37.664;2023-04-22T09:48:28;99279.38;;;17.64;27.79
35694;BME280;21812;55.536;37.664;2023-04-22T09:50:54;99268.72;;;17.57;28.22
35694;BME280;21812;55.536;37.664;2023-04-22T09:53:20;99285.25;;;17.27;28.30
35694;BME280;21812;55.536;37.664;2023-04-22T09:55:49;99284.25;;;16.99;28.74
35694;BME280;21812;55.536;37.664;2023-04-22T09:58:16;99289.78;;;16.92;29.46
35694;BME280;21812;55.536;37.664;2023-04-22T10:00:45;99262.09;;;16.68;29.36
35694;BME280;21812;55.536;37.664;2023-04-22T10:03:12;99291.94;;;16.78;29.47
35694;BME280;21812;55.536;37.664;2023-04-22T10:05:38;99286.31;;;16.80;29.66
35694;BME280;21812;55.536;37.664;2023-04-22T10:08:07;99288.38;;;16.61;30.02
35694;BME280;21812;55.536;37.664;2023-04-22T10:10:36;99287.25;;;16.86;30.50
35694;BME280;21812;55.536;37.664;2023-04-22T10:13:02;99295.47;;;17.08;29.44
35694;BME280;21812;55.536;37.664;2023-04-22T10:15:40;99265.16;;;17.17;29.32
35694;BME280;21812;55.536;37.664;2023-04-22T10:18:10;99235.78;;;17.55;29.15
35694;BME280;21812;55.536;37.664;2023-04-22T10:20:39;99279.06;;;18.38;27.53
35694;BME280;21812;55.536;37.664;2023-04-22T10:23:14;99278.50;;;19.12;27.71
35694;BME280;21812;55.536;37.664;2023-04-22T10:25:40;99270.53;;;19.65;26.21
35694;BME280;21812;55.536;37.664;2023-04-22T10:28:10;99274.25;;;19.91;25.79
35694;BME280;21812;55.536;37.664;2023-04-22T10:30:38;99273.94;;;19.88;24.53
35694;BME280;21812;55.536;37.664;2023-04-22T10:38:39;99243.47;;;20.23;24.39
35694;BME280;21812;55.536;37.664;2023-04-22T10:41:06;99260.47;;;20.77;23.69
35694;BME280;21812;55.536;37.664;2023-04-22T10:43:47;99242.06;;;21.35;24.07
35694;BME280;21812;55.536;37.664;2023-04-22T10:49:17;99256.94;;;20.71;24.71
35694;BME280;21812;55.536;37.664;2023-04-22T10:51:46;99264.31;;;20.13;25.35
35694;BME280;21812;55.536;37.664;2023-04-22T10:57:00;99277.41;;;18.81;26.14
35694;BME280;21812;55.536;37.664;2023-04-22T10:59:27;99270.34;;;18.80;26.35
35694;BME280;21812;55.536;37.664;2023-04-22T11:01:52;99269.13;;;18.44;27.41
35694;BME280;21812;55.536;37.664;2023-04-22T11:04:19;99279.19;;;18.26;26.93
35694;BME280;21812;55.536;37.664;2023-04-22T11:09:58;99248.44;;;18.32;26.69
35694;BME280;21812;55.536;37.664;2023-04-22T11:15:00;99239.63;;;20.93;23.99
35694;BME280;21812;55.536;37.664;2023-04-22T11:17:30;99244.84;;;22.36;23.27
35694;BME280;21812;55.536;37.664;2023-04-22T11:19:57;99248.63;;;23.25;22.02
35694;BME280;21812;55.536;37.664;2023-04-22T11:22:23;99240.66;;;23.62;20.50
35694;BME280;21812;55.536;37.664;2023-04-22T11:24:56;99234.91;;;23.64;20.18
35694;BME280;21812;55.536;37.664;2023-04-22T11:27:23;99219.00;;;23.76;19.29
35694;BME280;21812;55.536;37.664;2023-04-22T11:30:06;99240.38;;;24.36;19.93
35694;BME280;21812;55.536;37.664;2023-04-22T11:32:34;99240.78;;;23.23;20.59
35694;BME280;21812;55.536;37.664;2023-04-22T11:35:09;99246.53;;;22.17;21.41
35694;BME280;21812;55.536;37.664;2023-04-22T11:37:54;99239.09;;;21.37;21.91
35694;BME280;21812;55.536;37.664;2023-04-22T11:40:24;99224.13;;;20.62;22.44
35694;BME280;21812;55.536;37.664;2023-04-22T11:42:51;99245.75;;;20.47;22.93
35694;BME280;21812;55.536;37.664;2023-04-22T11:45:17;99237.06;;;22.04;22.55
35694;BME280;21812;55.536;37.664;2023-04-22T11:47:43;99235.66;;;23.11;21.16
35694;BME280;21812;55.536;37.664;2023-04-22T11:50:12;99246.47;;;24.09;20.17
35694;BME280;21812;55.536;37.664;2023-04-22T11:52:45;99234.28;;;25.02;19.29
35694;BME280;21812;55.536;37.664;2023-04-22T11:55:14;99230.47;;;26.10;19.26
35694;BME280;21812;55.536;37.664;2023-04-22T11:57:41;99207.13;;;26.77;17.08
35694;BME280;21812;55.536;37.664;2023-04-22T12:00:11;99170.94;;;27.11;17.20
35694;BME280;21812;55.536;37.664;2023-04-22T12:02:38;99204.28;;;27.04;16.75
35694;BME280;21812;55.536;37.664;2023-04-22T12:05:08;99192.44;;;25.53;17.96
35694;BME280;21812;55.536;37.664;2023-04-22T12:07:36;99210.25;;;24.47;18.47
35694;BME280;21812;55.536;37.664;2023-04-22T12:10:01;99225.84;;;23.45;19.81
35694;BME280;21812;55.536;37.664;2023-04-22T12:12:30;99228.47;;;22.91;20.71
35694;BME280;21812;55.536;37.664;2023-04-22T12:15:05;99231.09;;;23.07;20.43
35694;BME280;21812;55.536;37.664;2023-04-22T12:17:31;99224.41;;;24.06;19.62
35694;BME280;21812;55.536;37.664;2023-04-22T12:19:57;99221.75;;;25.01;19.50
35694;BME280;21812;55.536;37.664;2023-04-22T12:22:27;99221.97;;;26.11;18.89
35694;BME280;21812;55.536;37.664;2023-04-22T12:24:57;99213.69;;;27.12;17.19
35694;BME280;21812;55.536;37.664;2023-04-22T12:27:23;99214.22;;;28.34;16.76
35694;BME280;21812;55.536;37.664;2023-04-22T12:29:53;99204.06;;;29.04;16.43
35694;BME280;21812;55.536;37.664;2023-04-22T12:32:20;99203.91;;;29.10;16.32
35694;BME280;21812;55.536;37.664;2023-04-22T12:34:46;99200.22;;;29.14;15.25
35694;BME280;21812;55.536;37.664;2023-04-22T12:37:12;99205.63;;;27.69;15.81
35694;BME280;21812;55.536;37.664;2023-04-22T12:39:38;99198.59;;;27.46;16.42
35694;BME280;21812;55.536;37.664;2023-04-22T12:42:05;99200.66;;;26.72;16.88
35694;BME280;21812;55.536;37.664;2023-04-22T12:44:31;99209.47;;;25.78;17.54
35694;BME280;21812;55.536;37.664;2023-04-22T12:46:57;99209.81;;;24.77;18.03
35694;BME280;21812;55.536;37.664;2023-04-22T12:49:23;99214.63;;;24.67;18.09
35694;BME280;21812;55.536;37.664;2023-04-22T12:51:49;99205.84;;;25.82;17.07
35694;BME280;21812;55.536;37.664;2023-04-22T12:54:15;99195.25;;;26.81;16.30
35694;BME280;21812;55.536;37.664;2023-04-22T12:56:42;99206.13;;;27.72;16.83
35694;BME280;21812;55.536;37.664;2023-04-22T12:59:09;99193.91;;;28.61;15.09
35694;BME280;21812;55.536;37.664;2023-04-22T13:01:35;99188.59;;;29.94;14.64
35694;BME280;21812;55.536;37.664;2023-04-22T13:04:00;99188.81;;;29.89;15.33
35694;BME280;21812;55.536;37.664;2023-04-22T13:06:26;99209.03;;;28.15;15.22
35694;BME280;21812;55.536;37.664;2023-04-22T13:08:53;99193.22;;;26.87;16.26
35694;BME280;21812;55.536;37.664;2023-04-22T13:11:20;99178.75;;;25.39;17.69